createdAt,value
2023-02-22T00:01:03.001Z,8.40
2023-02-22T00:03:35.026Z,8.30
2023-02-22T00:06:04.984Z,8.31
2023-02-22T00:08:37.921Z,8.29
2023-02-22T00:11:10.426Z,8.24
2023-02-22T00:13:38.503Z,8.22
2023-02-22T00:16:06.392Z,8.16
2023-02-22T00:18:33.332Z,8.13
2023-02-22T00:21:01.256Z,8.10
2023-02-22T00:23:29.957Z,8.04
2023-02-22T00:25:58.771Z,8.00
2023-02-22T00:28:25.658Z,8.00
2023-02-22T00:30:52.926Z,7.95
2023-02-22T00:33:19.765Z,7.91
2023-02-22T00:35:46.656Z,7.92
2023-02-22T00:38:16.381Z,7.91
2023-02-22T00:40:43.425Z,7.87
2023-02-22T00:43:10.214Z,7.84
2023-02-22T00:45:37.878Z,7.80
2023-02-22T00:48:06.177Z,7.78
2023-02-22T00:50:33.705Z,7.73
2023-02-22T00:53:03.814Z,7.72
2023-02-22T00:55:33.721Z,7.71
2023-02-22T00:58:02.136Z,7.70
2023-02-22T01:00:41.734Z,7.67
2023-02-22T01:03:11.641Z,7.67
2023-02-22T01:05:38.949Z,7.60
2023-02-22T01:08:08.246Z,7.59
2023-02-22T01:10:35.392Z,7.57
2023-02-22T01:13:08.594Z,7.60
2023-02-22T01:15:37.785Z,7.57
2023-02-22T01:18:05.652Z,7.57
2023-02-22T01:20:33.241Z,7.55
2023-02-22T01:23:03.610Z,7.53
2023-02-22T01:25:31.683Z,7.54
2023-02-22T01:28:00.932Z,7.51
2023-02-22T01:30:31.029Z,7.49
2023-02-22T01:32:58.123Z,7.43
2023-02-22T01:35:29.088Z,7.41
2023-02-22T01:37:58.180Z,7.34
2023-02-22T01:40:33.864Z,7.34
2023-02-22T01:43:03.346Z,7.36
2023-02-22T01:45:30.245Z,7.35
2023-02-22T01:48:02.053Z,7.31
2023-02-22T01:50:31.880Z,7.33
2023-02-22T01:52:58.892Z,7.30
2023-02-22T01:55:25.980Z,7.26
2023-02-22T01:57:52.883Z,7.19
2023-02-22T02:00:21.549Z,7.18
2023-02-22T02:02:54.368Z,7.14
2023-02-22T02:05:21.432Z,7.11
2023-02-22T02:07:49.426Z,7.10
2023-02-22T02:10:16.276Z,7.03
2023-02-22T02:12:46.835Z,7.12
2023-02-22T02:15:29.031Z,7.11
2023-02-22T02:18:00.778Z,7.05
2023-02-22T02:20:30.949Z,7.03
2023-02-22T02:23:06.470Z,7.02
2023-02-22T02:25:52.357Z,7.02
2023-02-22T02:29:00.420Z,7.03
2023-02-22T02:32:18.741Z,7.02
2023-02-22T02:34:58.789Z,7.03
2023-02-22T02:37:31.601Z,7.02
2023-02-22T02:40:12.176Z,7.02
2023-02-22T02:42:46.260Z,7.05
2023-02-22T02:45:21.799Z,7.01
2023-02-22T02:47:57.245Z,6.96
2023-02-22T02:50:29.694Z,6.95
2023-02-22T02:53:01.336Z,6.94
2023-02-22T02:55:31.033Z,6.83
2023-02-22T02:57:59.381Z,6.80
2023-02-22T03:00:31.205Z,6.84
2023-02-22T03:03:23.696Z,6.83
2023-02-22T03:05:59.623Z,6.87
2023-02-22T03:08:32.616Z,6.82
2023-02-22T03:11:31.418Z,6.77
2023-02-22T03:14:16.500Z,6.78
2023-02-22T03:16:52.265Z,6.76
2023-02-22T03:19:45.786Z,6.73
2023-02-22T03:22:25.026Z,6.71
2023-02-22T03:25:02.235Z,6.70
2023-02-22T03:27:37.442Z,6.69
2023-02-22T03:30:10.389Z,6.65
2023-02-22T03:32:41.516Z,6.66
2023-02-22T03:35:13.141Z,6.60
2023-02-22T03:37:45.062Z,6.58
2023-02-22T03:40:26.510Z,6.57
2023-02-22T03:42:59.427Z,6.54
2023-02-22T03:45:29.332Z,6.53
2023-02-22T03:48:10.360Z,6.49
2023-02-22T03:50:38.463Z,6.47
2023-02-22T03:53:05.649Z,6.45
2023-02-22T03:55:33.031Z,6.43
2023-02-22T03:58:04.811Z,6.43
2023-02-22T04:00:33.942Z,6.41
2023-02-22T04:03:00.921Z,6.38
2023-02-22T04:05:27.794Z,6.34
2023-02-22T04:07:56.640Z,6.30
2023-02-22T04:10:24.331Z,6.27
2023-02-22T04:12:51.479Z,6.32
2023-02-22T04:15:21.969Z,6.27
2023-02-22T04:17:48.861Z,6.25
2023-02-22T04:20:19.957Z,6.22
2023-02-22T04:22:47.466Z,6.23
2023-02-22T04:25:15.051Z,6.24
2023-02-22T04:27:41.942Z,6.26
2023-02-22T04:30:09.557Z,6.24
2023-02-22T04:32:36.577Z,6.19
2023-02-22T04:35:04.848Z,6.14
2023-02-22T04:37:34.800Z,6.12
2023-02-22T04:40:02.394Z,6.09
2023-02-22T04:42:29.344Z,6.08
2023-02-22T04:44:56.162Z,6.10
2023-02-22T04:47:23.026Z,6.06
2023-02-22T04:49:49.873Z,6.05
2023-02-22T04:52:16.826Z,6.06
2023-02-22T04:54:43.740Z,6.04
2023-02-22T04:57:11.066Z,6.01
2023-02-22T04:59:37.962Z,5.99
2023-02-22T05:02:04.841Z,5.97
2023-02-22T05:04:31.749Z,5.89
2023-02-22T05:06:58.565Z,5.85
2023-02-22T05:09:25.366Z,5.88
2023-02-22T05:11:52.201Z,5.91
2023-02-22T05:14:18.993Z,5.92
2023-02-22T05:16:45.774Z,5.90
2023-02-22T05:19:12.759Z,5.84
2023-02-22T05:21:40.360Z,5.87
2023-02-22T05:24:07.656Z,5.85
2023-02-22T05:26:34.686Z,5.88
2023-02-22T05:29:01.535Z,5.85
2023-02-22T05:31:28.435Z,5.87
2023-02-22T05:33:55.294Z,5.87
2023-02-22T05:36:22.058Z,5.84
2023-02-22T05:38:48.875Z,5.83
2023-02-22T05:41:16.092Z,5.78
2023-02-22T05:43:43.117Z,5.75
2023-02-22T05:46:10.014Z,5.72
2023-02-22T05:48:37.015Z,5.68
2023-02-22T05:51:04.555Z,5.72
2023-02-22T05:53:31.410Z,5.66
2023-02-22T05:55:58.302Z,5.66
2023-02-22T05:58:25.161Z,5.62
2023-02-22T06:00:52.081Z,5.59
2023-02-22T06:03:18.902Z,5.58
2023-02-22T06:05:45.937Z,5.61
2023-02-22T06:08:12.773Z,5.59
2023-02-22T06:10:39.669Z,5.54
2023-02-22T06:13:07.281Z,5.53
2023-02-22T06:15:34.248Z,5.58
2023-02-22T06:18:01.696Z,5.57
2023-02-22T06:20:30.165Z,5.59
2023-02-22T06:22:58.585Z,5.57
2023-02-22T06:25:31.131Z,5.58
2023-02-22T06:27:59.441Z,5.59
2023-02-22T06:30:27.648Z,5.61
2023-02-22T06:32:54.631Z,5.59
2023-02-22T06:35:22.042Z,5.59
2023-02-22T06:37:49.060Z,5.60
2023-02-22T06:40:16.243Z,5.60
2023-02-22T06:42:43.223Z,5.62
2023-02-22T06:45:10.789Z,5.62
2023-02-22T06:47:41.457Z,5.61
2023-02-22T06:50:19.448Z,5.60
2023-02-22T06:52:47.969Z,5.61
2023-02-22T06:55:26.758Z,5.62
2023-02-22T06:57:53.669Z,5.67
2023-02-22T07:00:25.011Z,5.68
2023-02-22T07:02:52.841Z,5.70
2023-02-22T07:05:22.157Z,5.75
2023-02-22T07:07:52.638Z,5.77
2023-02-22T07:10:22.426Z,5.81
2023-02-22T07:12:49.265Z,5.82
2023-02-22T07:15:18.355Z,5.85
2023-02-22T07:17:45.378Z,5.90
2023-02-22T07:20:12.244Z,5.91
2023-02-22T07:22:39.676Z,5.94
2023-02-22T07:25:10.065Z,5.96
2023-02-22T07:27:38.753Z,6.01
2023-02-22T07:30:07.323Z,6.03
2023-02-22T07:32:34.395Z,6.07
2023-02-22T07:35:03.048Z,6.10
2023-02-22T07:37:30.341Z,6.14
2023-02-22T07:39:57.182Z,6.18
2023-02-22T07:42:24.030Z,6.22
2023-02-22T07:44:50.795Z,6.24
2023-02-22T07:47:17.597Z,6.30
2023-02-22T07:49:44.418Z,6.34
2023-02-22T07:52:12.753Z,6.38
2023-02-22T07:54:39.717Z,6.45
2023-02-22T07:57:06.579Z,6.46
2023-02-22T07:59:34.041Z,6.53
2023-02-22T08:02:00.899Z,6.60
2023-02-22T08:04:27.651Z,6.65
2023-02-22T08:06:54.453Z,6.72
2023-02-22T08:09:21.291Z,6.79
2023-02-22T08:11:48.100Z,6.85
2023-02-22T08:14:17.409Z,6.90
2023-02-22T08:16:44.275Z,6.97
2023-02-22T08:19:11.216Z,7.04
2023-02-22T08:21:37.979Z,7.11
2023-02-22T08:24:05.214Z,7.17
2023-02-22T08:26:32.012Z,7.22
2023-02-22T08:28:58.805Z,7.29
2023-02-22T08:31:25.654Z,7.35
2023-02-22T08:33:52.512Z,7.39
2023-02-22T08:36:19.390Z,7.48
2023-02-22T08:38:46.251Z,7.55
2023-02-22T08:41:13.085Z,7.63
2023-02-22T08:43:39.874Z,7.73
2023-02-22T08:46:06.732Z,7.82
2023-02-22T08:48:33.598Z,7.89
2023-02-22T08:51:00.397Z,7.96
2023-02-22T08:53:27.225Z,8.04
2023-02-22T08:55:54.164Z,8.13
2023-02-22T08:58:20.981Z,8.20
2023-02-22T09:00:47.972Z,8.28
2023-02-22T09:03:15.364Z,8.37
2023-02-22T09:05:44.016Z,8.44
2023-02-22T09:08:11.172Z,8.48
2023-02-22T09:10:38.022Z,8.54
2023-02-22T09:13:05.289Z,8.60
2023-02-22T09:15:33.191Z,8.68
2023-02-22T09:18:00.537Z,8.73
2023-02-22T09:20:29.126Z,8.78
2023-02-22T09:22:56.476Z,8.84
2023-02-22T09:25:23.957Z,8.91
2023-02-22T09:27:52.695Z,8.95
2023-02-22T09:30:32.476Z,9.00
2023-02-22T09:33:10.101Z,9.06
2023-02-22T09:35:38.080Z,9.12
2023-02-22T09:38:08.276Z,9.18
2023-02-22T09:40:45.085Z,9.23
2023-02-22T09:43:21.401Z,9.29
2023-02-22T09:46:13.758Z,9.35
2023-02-22T09:49:16.052Z,9.42
2023-02-22T09:51:52.735Z,9.52
2023-02-22T09:54:30.026Z,9.64
2023-02-22T09:57:00.544Z,9.70
2023-02-22T09:59:37.590Z,9.75
2023-02-22T10:02:25.350Z,9.84
2023-02-22T10:05:17.813Z,9.91
2023-02-22T10:07:54.247Z,9.98
2023-02-22T10:10:23.553Z,10.05
2023-02-22T10:13:23.692Z,10.11
2023-02-22T10:16:12.214Z,10.16
2023-02-22T10:19:17.193Z,10.23
2023-02-22T10:22:26.583Z,10.31
2023-02-22T10:25:12.951Z,10.42
2023-02-22T10:27:44.928Z,10.49
2023-02-22T10:30:24.452Z,10.54
2023-02-22T10:33:18.438Z,10.64
2023-02-22T10:35:47.105Z,10.69
2023-02-22T10:38:24.407Z,10.75
2023-02-22T10:40:58.014Z,10.79
2023-02-22T10:43:25.838Z,10.87
2023-02-22T10:46:01.353Z,10.95
2023-02-22T10:48:31.206Z,10.99
2023-02-22T10:51:03.528Z,11.03
2023-02-22T10:53:30.918Z,11.05
2023-02-22T10:56:21.744Z,11.08
2023-02-22T10:59:02.353Z,11.14
2023-02-22T11:01:32.283Z,11.21
2023-02-22T11:04:19.132Z,11.24
2023-02-22T11:06:48.970Z,11.27
2023-02-22T11:09:18.642Z,11.32
2023-02-22T11:11:47.870Z,11.35
2023-02-22T11:14:34.973Z,11.40
2023-02-22T11:17:07.914Z,11.46
2023-02-22T11:19:38.306Z,11.51
2023-02-22T11:22:05.086Z,11.54
2023-02-22T11:24:40.350Z,11.61
2023-02-22T11:27:43.888Z,11.67
2023-02-22T11:30:22.144Z,11.76
2023-02-22T11:32:54.730Z,11.82
2023-02-22T11:35:35.487Z,11.86
2023-02-22T11:38:16.356Z,11.90
2023-02-22T11:40:44.369Z,11.95
2023-02-22T11:43:18.961Z,12.04
2023-02-22T11:46:17.634Z,12.09
2023-02-22T11:49:05.152Z,12.16
2023-02-22T11:51:40.852Z,12.22
2023-02-22T11:54:22.563Z,12.28
2023-02-22T11:56:53.543Z,12.33
2023-02-22T11:59:32.337Z,12.38
2023-02-22T12:02:05.476Z,12.41
2023-02-22T12:05:10.828Z,12.42
2023-02-22T12:07:44.696Z,12.45
2023-02-22T12:10:44.177Z,12.47
2023-02-22T12:13:34.182Z,12.52
2023-02-22T12:16:03.972Z,12.56
2023-02-22T12:18:33.790Z,12.60
2023-02-22T12:21:05.691Z,12.65
2023-02-22T12:23:53.384Z,12.69
2023-02-22T12:26:30.543Z,12.73
2023-02-22T12:29:28.200Z,12.77
2023-02-22T12:32:00.888Z,12.83
2023-02-22T12:34:27.657Z,12.89
2023-02-22T12:37:23.453Z,12.92
2023-02-22T12:40:10.208Z,12.97
2023-02-22T12:42:36.936Z,13.00
2023-02-22T12:45:11.666Z,13.05
2023-02-22T12:47:46.474Z,13.09
2023-02-22T12:50:20.257Z,13.13
2023-02-22T12:52:56.082Z,13.10
2023-02-22T12:55:37.445Z,13.13
2023-02-22T12:58:25.198Z,13.23
2023-02-22T13:01:05.871Z,13.26
2023-02-22T13:03:43.064Z,13.26
2023-02-22T13:06:27.961Z,13.32
2023-02-22T13:08:54.762Z,13.36
2023-02-22T13:11:48.752Z,13.40
2023-02-22T13:14:34.088Z,13.44
2023-02-22T13:17:21.232Z,13.48
2023-02-22T13:20:20.094Z,13.52
2023-02-22T13:23:02.894Z,13.55
2023-02-22T13:25:58.092Z,13.57
2023-02-22T13:29:13.857Z,13.60
2023-02-22T13:32:09.376Z,13.65
2023-02-22T13:35:01.132Z,13.69
2023-02-22T13:37:52.345Z,13.73
2023-02-22T13:40:43.460Z,13.75
2023-02-22T13:43:34.297Z,13.79
2023-02-22T13:46:25.522Z,13.83
2023-02-22T13:49:05.804Z,13.86
2023-02-22T13:51:45.035Z,13.89
2023-02-22T13:54:20.968Z,13.92
2023-02-22T13:56:50.227Z,13.93
2023-02-22T13:59:36.441Z,13.94
2023-02-22T14:02:07.898Z,13.95
2023-02-22T14:04:42.395Z,13.97
2023-02-22T14:07:18.401Z,14.00
2023-02-22T14:09:49.250Z,14.03
2023-02-22T14:12:31.342Z,14.04
2023-02-22T14:15:18.693Z,14.07
2023-02-22T14:18:07.449Z,14.07
2023-02-22T14:20:40.155Z,14.07
2023-02-22T14:23:31.933Z,14.08
2023-02-22T14:26:10.565Z,14.08
2023-02-22T14:28:40.416Z,14.10
2023-02-22T14:31:29.526Z,14.11
2023-02-22T14:34:11.928Z,14.12
2023-02-22T14:36:41.795Z,14.16
2023-02-22T14:39:34.428Z,14.18
2023-02-22T14:42:22.507Z,14.21
2023-02-22T14:45:08.751Z,14.21
2023-02-22T14:47:54.448Z,14.21
2023-02-22T14:50:28.233Z,14.21
2023-02-22T14:53:04.294Z,14.22
2023-02-22T14:55:46.705Z,14.22
2023-02-22T14:58:18.903Z,14.21
2023-02-22T15:00:53.104Z,14.23
2023-02-22T15:03:37.417Z,14.23
2023-02-22T15:06:15.246Z,14.23
2023-02-22T15:08:48.727Z,14.23
2023-02-22T15:11:32.448Z,14.24
2023-02-22T15:14:01.195Z,14.25
2023-02-22T15:16:32.793Z,14.26
2023-02-22T15:19:04.892Z,14.25
2023-02-22T15:21:32.279Z,14.25
2023-02-22T15:24:02.044Z,14.25
2023-02-22T15:26:59.236Z,14.25
2023-02-22T15:29:38.072Z,14.26
2023-02-22T15:32:20.161Z,14.23
2023-02-22T15:34:47.119Z,14.23
2023-02-22T15:37:25.437Z,14.22
2023-02-22T15:39:59.509Z,14.21
2023-02-22T15:42:29.746Z,14.20
2023-02-22T15:44:57.077Z,14.20
2023-02-22T15:47:25.483Z,14.18
2023-02-22T15:50:16.171Z,14.16
2023-02-22T15:53:01.855Z,14.16
2023-02-22T15:55:37.731Z,14.00
2023-02-22T15:58:12.039Z,13.97
2023-02-22T16:00:42.296Z,14.00
2023-02-22T16:03:15.066Z,14.01
2023-02-22T16:05:52.589Z,14.04
2023-02-22T16:08:53.973Z,13.95
2023-02-22T16:11:30.917Z,13.85
2023-02-22T16:14:05.123Z,13.94
2023-02-22T16:16:41.598Z,13.92
2023-02-22T16:19:27.765Z,13.89
2023-02-22T16:22:03.529Z,13.83
2023-02-22T16:24:33.650Z,13.78
2023-02-22T16:27:12.977Z,13.74
2023-02-22T16:29:41.137Z,13.68
2023-02-22T16:32:09.322Z,13.65
2023-02-22T16:34:36.679Z,13.61
2023-02-22T16:37:03.641Z,13.58
2023-02-22T16:39:32.961Z,13.52
2023-02-22T16:42:05.512Z,13.47
2023-02-22T16:44:32.475Z,13.40
2023-02-22T16:47:00.761Z,13.39
2023-02-22T16:49:27.869Z,13.36
2023-02-22T16:51:58.751Z,13.20
2023-02-22T16:54:35.120Z,13.11
2023-02-22T16:57:04.880Z,13.02
2023-02-22T16:59:37.960Z,12.97
2023-02-22T17:02:10.848Z,12.93
2023-02-22T17:04:38.097Z,12.88
2023-02-22T17:07:05.918Z,12.82
2023-02-22T17:09:33.346Z,12.77
2023-02-22T17:12:02.465Z,12.74
2023-02-22T17:14:33.793Z,12.68
2023-02-22T17:17:00.991Z,12.64
2023-02-22T17:19:28.530Z,12.57
2023-02-22T17:21:56.165Z,12.67
2023-02-22T17:24:29.636Z,12.64
2023-02-22T17:26:59.513Z,12.62
2023-02-22T17:29:28.065Z,12.57
2023-02-22T17:31:55.753Z,12.53
2023-02-22T17:34:23.548Z,12.48
2023-02-22T17:36:52.169Z,12.42
2023-02-22T17:39:19.819Z,12.37
2023-02-22T17:41:52.965Z,12.32
2023-02-22T17:44:22.418Z,12.27
2023-02-22T17:46:50.209Z,12.20
2023-02-22T17:49:19.098Z,12.17
2023-02-22T17:51:49.760Z,12.17
2023-02-22T17:54:18.164Z,12.13
2023-02-22T17:56:46.146Z,12.06
2023-02-22T17:59:13.810Z,12.03
2023-02-22T18:01:47.194Z,11.99
2023-02-22T18:04:14.956Z,11.85
2023-02-22T18:06:44.058Z,11.77
2023-02-22T18:09:12.604Z,11.75
2023-02-22T18:11:40.652Z,11.80
2023-02-22T18:14:11.083Z,11.78
2023-02-22T18:16:39.943Z,11.77
2023-02-22T18:19:11.860Z,11.73
2023-02-22T18:21:42.092Z,11.72
2023-02-22T18:24:10.138Z,11.69
2023-02-22T18:26:39.521Z,11.65
2023-02-22T18:29:07.467Z,11.65
2023-02-22T18:31:35.503Z,11.63
2023-02-22T18:34:04.403Z,11.61
2023-02-22T18:36:33.570Z,11.59
2023-02-22T18:39:02.016Z,11.55
2023-02-22T18:41:29.974Z,11.48
2023-02-22T18:44:00.554Z,11.47
2023-02-22T18:46:30.701Z,11.45
2023-02-22T18:49:00.360Z,11.46
2023-02-22T18:51:29.462Z,11.41
2023-02-22T18:54:03.312Z,11.40
2023-02-22T18:56:34.520Z,11.38
2023-02-22T18:59:04.223Z,11.35
2023-02-22T19:01:39.263Z,11.33
2023-02-22T19:04:12.995Z,11.28
2023-02-22T19:06:43.052Z,11.26
2023-02-22T19:09:13.014Z,11.13
2023-02-22T19:11:45.353Z,11.05
2023-02-22T19:14:14.980Z,11.01
2023-02-22T19:16:46.700Z,10.99
2023-02-22T19:19:16.916Z,10.93
2023-02-22T19:21:44.654Z,10.93
2023-02-22T19:24:13.877Z,10.90
2023-02-22T19:26:52.201Z,10.89
2023-02-22T19:29:24.320Z,10.87
2023-02-22T19:31:54.177Z,10.86
2023-02-22T19:34:25.365Z,10.84
2023-02-22T19:36:54.813Z,10.81
2023-02-22T19:39:24.693Z,10.88
2023-02-22T19:41:53.870Z,10.88
2023-02-22T19:44:25.437Z,10.88
2023-02-22T19:46:58.817Z,10.84
2023-02-22T19:49:28.508Z,10.81
2023-02-22T19:51:58.708Z,10.76
2023-02-22T19:54:27.145Z,10.71
2023-02-22T19:56:58.881Z,10.67
2023-02-22T19:59:27.562Z,10.61
2023-02-22T20:01:57.306Z,10.61
2023-02-22T20:04:26.258Z,10.58
2023-02-22T20:06:55.501Z,10.52
2023-02-22T20:09:37.989Z,10.46
2023-02-22T20:12:08.799Z,10.43
2023-02-22T20:14:39.813Z,10.37
2023-02-22T20:17:09.626Z,10.38
2023-02-22T20:19:39.368Z,10.34
2023-02-22T20:22:08.255Z,10.31
2023-02-22T20:24:44.538Z,10.26
2023-02-22T20:27:13.249Z,10.20
2023-02-22T20:29:43.495Z,10.16
2023-02-22T20:32:16.621Z,10.13
2023-02-22T20:34:49.813Z,10.12
2023-02-22T20:37:22.512Z,10.10
2023-02-22T20:39:54.061Z,10.06
2023-02-22T20:42:22.829Z,10.00
2023-02-22T20:44:51.513Z,9.96
2023-02-22T20:47:19.778Z,9.91
2023-02-22T20:49:48.641Z,9.91
2023-02-22T20:52:17.604Z,9.89
2023-02-22T20:54:47.058Z,9.88
2023-02-22T20:57:15.430Z,9.89
2023-02-22T20:59:46.127Z,9.83
2023-02-22T21:02:14.776Z,9.81
2023-02-22T21:04:45.134Z,9.79
2023-02-22T21:07:14.102Z,9.75
2023-02-22T21:09:43.106Z,9.71
2023-02-22T21:12:14.010Z,9.71
2023-02-22T21:14:46.848Z,9.70
2023-02-22T21:17:14.881Z,9.68
2023-02-22T21:19:43.169Z,9.63
2023-02-22T21:22:11.503Z,9.60
2023-02-22T21:24:39.490Z,9.59
2023-02-22T21:27:07.680Z,9.55
2023-02-22T21:29:37.073Z,9.54
2023-02-22T21:32:05.397Z,9.50
2023-02-22T21:34:34.391Z,9.45
2023-02-22T21:37:02.670Z,9.43
2023-02-22T21:39:30.861Z,9.38
2023-02-22T21:42:02.252Z,9.37
2023-02-22T21:44:30.934Z,9.36
2023-02-22T21:46:58.914Z,9.33
2023-02-22T21:49:28.917Z,9.27
2023-02-22T21:51:56.570Z,9.27
2023-02-22T21:54:24.177Z,9.25
2023-02-22T21:56:51.546Z,9.25
2023-02-22T21:59:20.875Z,9.20
2023-02-22T22:01:50.446Z,9.19
2023-02-22T22:04:20.589Z,9.19
2023-02-22T22:06:53.000Z,9.13
2023-02-22T22:09:23.378Z,9.13
2023-02-22T22:11:53.584Z,9.12
2023-02-22T22:14:23.413Z,9.11
2023-02-22T22:16:52.798Z,9.07
2023-02-22T22:19:19.982Z,9.04
2023-02-22T22:21:47.132Z,9.03
2023-02-22T22:24:13.910Z,9.03
2023-02-22T22:26:40.873Z,9.04
2023-02-22T22:29:11.559Z,9.04
2023-02-22T22:31:38.837Z,8.99
2023-02-22T22:34:06.241Z,8.96
2023-02-22T22:36:34.507Z,8.87
2023-02-22T22:39:01.416Z,8.91
2023-02-22T22:41:28.354Z,8.90
2023-02-22T22:43:55.819Z,8.87
2023-02-22T22:46:23.033Z,8.85
2023-02-22T22:48:49.884Z,8.80
2023-02-22T22:51:20.343Z,8.79
2023-02-22T22:53:49.033Z,8.75
2023-02-22T22:56:21.544Z,8.73
2023-02-22T22:58:51.709Z,8.70
2023-02-22T23:01:26.897Z,8.72
2023-02-22T23:04:02.138Z,8.70
2023-02-22T23:06:40.759Z,8.67
2023-02-22T23:09:13.338Z,8.59
2023-02-22T23:11:46.683Z,8.57
2023-02-22T23:14:16.003Z,8.57
2023-02-22T23:16:43.014Z,8.52
2023-02-22T23:19:10.024Z,8.47
2023-02-22T23:21:37.520Z,8.44
2023-02-22T23:24:08.416Z,8.42
2023-02-22T23:26:35.512Z,8.43
2023-02-22T23:29:02.920Z,8.42
2023-02-22T23:31:30.091Z,8.37
2023-02-22T23:33:59.016Z,8.36
2023-02-22T23:36:26.991Z,8.34
2023-02-22T23:38:54.359Z,8.35
2023-02-22T23:41:25.057Z,8.34
2023-02-22T23:43:52.003Z,8.32
2023-02-22T23:46:19.021Z,8.31
2023-02-22T23:48:54.758Z,8.34
2023-02-22T23:51:26.515Z,8.25
2023-02-22T23:53:57.472Z,8.27
2023-02-22T23:56:27.052Z,8.25
2023-02-22T23:58:57.377Z,8.23
